createdAt,value
2017-07-29T00:00:31.696Z,6.57
2017-07-29T00:02:58.780Z,6.70
2017-07-29T00:05:25.080Z,6.15
2017-07-29T00:07:51.496Z,5.57
2017-07-29T00:10:17.807Z,6.25
2017-07-29T00:12:44.119Z,10.05
2017-07-29T00:15:10.743Z,73.62
2017-07-29T00:17:37.071Z,39.00
2017-07-29T00:20:04.119Z,12.23
2017-07-29T00:22:30.488Z,14.73
2017-07-29T00:24:56.784Z,14.98
2017-07-29T00:27:23.132Z,12.45
2017-07-29T00:29:49.458Z,11.45
2017-07-29T00:32:15.793Z,17.40
2017-07-29T00:34:42.116Z,10.32
2017-07-29T00:37:08.476Z,7.53
2017-07-29T00:39:34.820Z,8.38
2017-07-29T00:42:01.151Z,5.85
2017-07-29T00:44:27.455Z,6.10
2017-07-29T00:46:53.759Z,5.60
2017-07-29T00:49:20.115Z,5.40
2017-07-29T00:51:46.417Z,5.65
2017-07-29T00:54:12.724Z,5.60
2017-07-29T00:56:39.814Z,5.90
2017-07-29T00:59:06.158Z,5.45
2017-07-29T01:01:32.479Z,5.32
2017-07-29T01:03:58.828Z,5.30
2017-07-29T01:06:25.142Z,5.25
2017-07-29T01:08:51.440Z,5.15
2017-07-29T01:11:17.807Z,5.85
2017-07-29T01:13:44.139Z,5.15
2017-07-29T01:16:10.469Z,5.50
2017-07-29T01:18:36.835Z,4.70
2017-07-29T01:21:03.147Z,5.60
2017-07-29T01:23:29.476Z,5.80
2017-07-29T01:25:55.772Z,4.72
2017-07-29T01:28:22.103Z,5.07
2017-07-29T01:30:48.491Z,5.75
2017-07-29T01:33:14.794Z,4.72
2017-07-29T01:35:41.119Z,5.30
2017-07-29T01:38:07.499Z,5.50
2017-07-29T01:40:34.571Z,5.37
2017-07-29T01:43:00.894Z,5.30
2017-07-29T01:45:27.249Z,5.50
2017-07-29T01:47:53.616Z,5.62
2017-07-29T01:50:19.978Z,5.05
2017-07-29T01:52:46.335Z,4.85
2017-07-29T01:55:12.702Z,5.50
2017-07-29T01:57:39.025Z,5.18
2017-07-29T02:00:05.375Z,5.62
2017-07-29T02:02:31.760Z,5.53
2017-07-29T02:04:58.091Z,4.95
2017-07-29T02:07:24.491Z,5.28
2017-07-29T02:09:50.815Z,5.60
2017-07-29T02:12:17.851Z,5.45
2017-07-29T02:14:44.923Z,5.82
2017-07-29T02:17:11.239Z,6.12
2017-07-29T02:19:38.280Z,5.80
2017-07-29T02:22:05.324Z,6.28
2017-07-29T02:24:31.649Z,6.55
2017-07-29T02:26:57.935Z,6.55
2017-07-29T02:29:24.254Z,6.72
2017-07-29T02:31:50.655Z,6.78
2017-07-29T02:34:17.691Z,6.57
2017-07-29T02:36:44.023Z,6.00
2017-07-29T02:39:11.112Z,5.70
2017-07-29T02:41:37.410Z,5.85
2017-07-29T02:44:04.442Z,5.32
2017-07-29T02:46:30.781Z,5.80
2017-07-29T02:48:57.850Z,5.40
2017-07-29T02:51:24.212Z,5.72
2017-07-29T02:53:50.508Z,4.62
2017-07-29T02:56:16.859Z,4.95
2017-07-29T02:58:43.176Z,4.75
2017-07-29T03:01:09.499Z,5.30
2017-07-29T03:03:35.801Z,5.50
2017-07-29T03:06:02.851Z,6.05
2017-07-29T03:08:29.163Z,5.68
2017-07-29T03:10:55.474Z,5.53
2017-07-29T03:13:21.828Z,5.15
2017-07-29T03:15:48.114Z,4.75
2017-07-29T03:18:14.413Z,5.50
2017-07-29T03:20:41.500Z,5.12
2017-07-29T03:23:07.795Z,5.37
2017-07-29T03:25:34.096Z,5.62
2017-07-29T03:28:00.439Z,5.87
2017-07-29T03:30:26.736Z,5.30
2017-07-29T03:32:53.032Z,6.00
2017-07-29T03:35:19.367Z,5.25
2017-07-29T03:37:45.698Z,5.30
2017-07-29T03:40:11.991Z,5.43
2017-07-29T03:42:38.319Z,4.70
2017-07-29T03:45:05.407Z,4.85
2017-07-29T03:47:31.708Z,5.07
2017-07-29T03:49:58.032Z,5.28
2017-07-29T03:52:24.343Z,5.55
2017-07-29T03:54:50.666Z,5.68
2017-07-29T03:57:16.959Z,6.12
2017-07-29T03:59:43.258Z,5.15
2017-07-29T04:02:10.351Z,5.25
2017-07-29T04:04:36.671Z,4.62
2017-07-29T04:07:03.071Z,5.35
2017-07-29T04:09:30.111Z,4.47
2017-07-29T04:11:57.201Z,4.93
2017-07-29T04:14:23.499Z,4.70
2017-07-29T04:16:50.551Z,3.60
2017-07-29T04:19:16.872Z,4.43
2017-07-29T04:21:43.320Z,4.20
2017-07-29T04:24:09.643Z,4.47
2017-07-29T04:26:35.978Z,4.00
2017-07-29T04:29:02.334Z,4.32
2017-07-29T04:31:28.677Z,4.22
2017-07-29T04:33:55.000Z,4.20
2017-07-29T04:36:21.307Z,4.53
2017-07-29T04:38:47.650Z,5.00
2017-07-29T04:41:13.959Z,4.45
2017-07-29T04:43:40.258Z,4.10
2017-07-29T04:46:07.311Z,3.78
2017-07-29T04:48:33.657Z,4.30
2017-07-29T04:50:59.991Z,4.25
2017-07-29T04:53:26.330Z,3.70
2017-07-29T04:55:52.643Z,15.98
2017-07-29T04:58:18.964Z,7.97
2017-07-29T05:00:46.023Z,6.37
2017-07-29T05:03:13.059Z,4.30
2017-07-29T05:05:40.127Z,3.83
2017-07-29T05:08:06.495Z,3.97
2017-07-29T05:10:32.847Z,4.03
2017-07-29T05:12:59.138Z,4.07
2017-07-29T05:15:25.443Z,4.18
2017-07-29T05:17:51.811Z,3.55
2017-07-29T05:20:18.108Z,4.30
2017-07-29T05:22:44.431Z,3.67
2017-07-29T05:25:10.775Z,4.30
2017-07-29T05:27:37.078Z,4.10
2017-07-29T05:30:03.389Z,4.60
2017-07-29T05:32:29.751Z,4.57
2017-07-29T05:34:56.817Z,3.72
2017-07-29T05:37:23.131Z,3.72
2017-07-29T05:39:49.500Z,3.40
2017-07-29T05:42:15.843Z,4.05
2017-07-29T05:44:42.155Z,3.78
2017-07-29T05:47:08.500Z,3.40
2017-07-29T05:49:34.883Z,3.30
2017-07-29T05:52:01.204Z,3.47
2017-07-29T05:54:27.562Z,3.20
2017-07-29T05:56:53.885Z,3.25
2017-07-29T05:59:20.234Z,2.33
2017-07-29T06:01:46.559Z,3.00
2017-07-29T06:04:12.935Z,3.25
2017-07-29T06:06:39.288Z,2.97
2017-07-29T06:09:06.363Z,2.95
2017-07-29T06:11:32.734Z,2.87
2017-07-29T06:13:59.103Z,4.45
2017-07-29T06:16:25.419Z,3.20
2017-07-29T06:18:51.755Z,3.20
2017-07-29T06:21:18.789Z,3.45
2017-07-29T06:23:45.128Z,3.70
2017-07-29T06:26:11.499Z,2.70
2017-07-29T06:28:37.890Z,2.60
2017-07-29T06:31:04.211Z,3.10
2017-07-29T06:33:31.332Z,2.87
2017-07-29T06:35:57.782Z,2.95
2017-07-29T06:38:24.086Z,3.00
2017-07-29T06:40:50.436Z,2.90
2017-07-29T06:43:16.842Z,2.65
2017-07-29T06:45:43.272Z,2.90
2017-07-29T06:48:09.603Z,2.58
2017-07-29T06:50:35.931Z,2.78
2017-07-29T06:53:02.515Z,2.40
2017-07-29T06:55:28.862Z,2.90
2017-07-29T06:57:55.909Z,2.70
2017-07-29T07:00:23.093Z,2.50
2017-07-29T07:02:49.566Z,2.60
2017-07-29T07:05:15.952Z,2.67
2017-07-29T07:07:42.283Z,2.12
2017-07-29T07:10:08.614Z,2.80
2017-07-29T07:12:34.982Z,2.47
2017-07-29T07:15:01.303Z,2.62
2017-07-29T07:17:27.655Z,1.80
2017-07-29T07:19:54.703Z,2.40
2017-07-29T07:22:21.071Z,2.20
2017-07-29T07:24:47.417Z,2.25
2017-07-29T07:27:13.800Z,2.20
2017-07-29T07:29:40.207Z,2.15
2017-07-29T07:32:06.515Z,2.22
2017-07-29T07:34:32.803Z,2.33
2017-07-29T07:36:59.879Z,2.45
2017-07-29T07:39:26.172Z,1.77
2017-07-29T07:41:53.264Z,2.00
2017-07-29T07:44:19.600Z,1.70
2017-07-29T07:46:46.057Z,2.12
2017-07-29T07:49:12.389Z,2.00
2017-07-29T07:51:38.748Z,3.67
2017-07-29T07:54:05.151Z,1.60
2017-07-29T07:56:31.483Z,1.70
2017-07-29T07:58:58.181Z,2.00
2017-07-29T08:01:24.532Z,2.15
2017-07-29T08:03:50.891Z,2.00
2017-07-29T08:06:17.197Z,1.75
2017-07-29T08:08:43.505Z,1.70
2017-07-29T08:11:09.879Z,2.25
2017-07-29T08:13:39.839Z,2.55
2017-07-29T08:16:06.379Z,1.83
2017-07-29T08:18:32.691Z,1.55
2017-07-29T08:20:59.757Z,2.12
2017-07-29T08:23:26.051Z,2.10
2017-07-29T08:25:53.095Z,2.65
2017-07-29T08:28:19.430Z,2.50
2017-07-29T08:30:45.767Z,2.00
2017-07-29T08:33:12.126Z,1.90
2017-07-29T08:35:38.502Z,2.40
2017-07-29T08:38:04.836Z,2.40
2017-07-29T08:40:31.151Z,2.45
2017-07-29T08:42:57.481Z,2.42
2017-07-29T08:45:23.772Z,1.80
2017-07-29T08:47:50.096Z,2.05
2017-07-29T08:50:16.478Z,2.10
2017-07-29T08:52:42.830Z,2.10
2017-07-29T08:55:09.183Z,1.92
2017-07-29T08:57:35.592Z,2.00
2017-07-29T09:00:01.912Z,2.10
2017-07-29T09:02:28.234Z,2.08
2017-07-29T09:04:54.566Z,2.20
2017-07-29T09:07:20.876Z,2.20
2017-07-29T09:09:47.183Z,1.90
2017-07-29T09:12:13.518Z,1.70
2017-07-29T09:14:39.845Z,1.90
2017-07-29T09:17:06.188Z,1.83
2017-07-29T09:19:32.524Z,2.00
2017-07-29T09:21:58.831Z,2.62
2017-07-29T09:24:25.163Z,2.30
2017-07-29T09:26:51.795Z,2.28
2017-07-29T09:29:18.119Z,2.12
2017-07-29T09:31:44.466Z,2.45
2017-07-29T09:34:10.814Z,1.98
2017-07-29T09:36:37.136Z,2.28
2017-07-29T09:39:03.555Z,2.10
2017-07-29T09:41:29.904Z,2.58
2017-07-29T09:43:56.207Z,2.05
2017-07-29T09:46:22.535Z,2.37
2017-07-29T09:48:48.849Z,1.98
2017-07-29T09:51:15.929Z,1.60
2017-07-29T09:53:42.248Z,2.20
2017-07-29T09:56:08.579Z,2.58
2017-07-29T09:58:34.911Z,2.10
2017-07-29T10:01:01.216Z,1.87
2017-07-29T10:03:27.516Z,2.10
2017-07-29T10:05:53.884Z,2.10
2017-07-29T10:08:20.943Z,1.87
2017-07-29T10:10:47.251Z,1.62
2017-07-29T10:13:14.364Z,1.70
2017-07-29T10:15:40.690Z,2.00
2017-07-29T10:18:07.071Z,1.80
2017-07-29T10:20:33.455Z,1.60
2017-07-29T10:22:59.772Z,1.85
2017-07-29T10:25:26.063Z,2.00
2017-07-29T10:27:52.397Z,1.60
2017-07-29T10:30:18.740Z,2.00
2017-07-29T10:32:45.064Z,1.83
2017-07-29T10:35:11.396Z,1.70
2017-07-29T10:37:37.700Z,2.30
2017-07-29T10:40:04.803Z,2.00
2017-07-29T10:42:31.123Z,1.75
2017-07-29T10:44:57.452Z,1.80
2017-07-29T10:47:23.790Z,1.85
2017-07-29T10:49:50.196Z,1.73
2017-07-29T10:52:16.512Z,1.90
2017-07-29T10:54:43.556Z,1.92
2017-07-29T10:57:10.638Z,1.58
2017-07-29T10:59:36.948Z,1.50
2017-07-29T11:02:03.349Z,1.77
2017-07-29T11:04:29.660Z,1.40
2017-07-29T11:06:55.971Z,1.30
2017-07-29T11:09:22.323Z,1.20
2017-07-29T11:11:48.680Z,1.60
2017-07-29T11:14:15.064Z,1.30
2017-07-29T11:16:41.448Z,1.23
2017-07-29T11:19:07.784Z,1.30
2017-07-29T11:21:34.866Z,0.95
2017-07-29T11:24:01.203Z,1.40
2017-07-29T11:26:27.795Z,1.27
2017-07-29T11:28:54.868Z,1.73
2017-07-29T11:31:21.192Z,1.55
2017-07-29T11:33:47.530Z,1.75
2017-07-29T11:36:13.834Z,1.50
2017-07-29T11:38:40.928Z,1.50
2017-07-29T11:41:07.272Z,1.48
2017-07-29T11:43:33.619Z,1.20
2017-07-29T11:46:00.029Z,1.60
2017-07-29T11:48:26.359Z,1.67
2017-07-29T11:50:52.716Z,1.35
2017-07-29T11:53:19.059Z,1.62
2017-07-29T11:55:45.368Z,1.50
2017-07-29T11:58:11.694Z,1.50
2017-07-29T12:00:38.836Z,1.27
2017-07-29T12:03:05.148Z,1.50
2017-07-29T12:05:31.448Z,1.65
2017-07-29T12:07:57.865Z,1.50
2017-07-29T12:10:24.911Z,1.40
2017-07-29T12:12:51.991Z,1.60
2017-07-29T12:15:18.316Z,1.80
2017-07-29T12:17:44.617Z,1.65
2017-07-29T12:20:10.975Z,1.80
2017-07-29T12:22:37.309Z,1.33
2017-07-29T12:25:03.606Z,1.40
2017-07-29T12:27:29.967Z,1.60
2017-07-29T12:29:56.274Z,1.62
2017-07-29T12:32:22.571Z,1.45
2017-07-29T12:34:48.925Z,1.30
2017-07-29T12:37:15.989Z,1.70
2017-07-29T12:39:42.296Z,1.62
2017-07-29T12:42:08.648Z,1.70
2017-07-29T12:44:35.691Z,1.40
2017-07-29T12:47:02.808Z,1.80
2017-07-29T12:49:29.132Z,1.83
2017-07-29T12:51:55.483Z,1.25
2017-07-29T12:54:21.856Z,1.48
2017-07-29T12:56:48.176Z,1.70
2017-07-29T12:59:14.507Z,1.87
2017-07-29T13:01:40.856Z,1.90
2017-07-29T13:04:07.202Z,1.73
2017-07-29T13:06:33.507Z,1.70
2017-07-29T13:08:59.859Z,1.77
2017-07-29T13:11:26.208Z,1.90
2017-07-29T13:13:52.529Z,1.60
2017-07-29T13:16:18.866Z,1.80
2017-07-29T13:18:45.249Z,1.83
2017-07-29T13:21:11.583Z,1.60
2017-07-29T13:23:37.927Z,1.85
2017-07-29T13:26:04.251Z,2.40
2017-07-29T13:28:30.557Z,2.40
2017-07-29T13:30:57.652Z,2.08
2017-07-29T13:33:23.999Z,2.08
2017-07-29T13:35:50.327Z,2.58
2017-07-29T13:38:16.650Z,1.80
2017-07-29T13:40:43.008Z,1.70
2017-07-29T13:43:09.300Z,1.90
2017-07-29T13:45:35.615Z,1.87
2017-07-29T13:48:02.014Z,1.90
2017-07-29T13:50:28.366Z,2.08
2017-07-29T13:52:54.683Z,2.00
2017-07-29T13:55:21.773Z,2.20
2017-07-29T13:57:48.067Z,2.12
2017-07-29T14:00:14.385Z,2.20
2017-07-29T14:02:40.762Z,1.85
2017-07-29T14:05:07.081Z,2.22
2017-07-29T14:07:33.407Z,2.30
2017-07-29T14:09:59.756Z,2.03
2017-07-29T14:12:26.075Z,2.83
2017-07-29T14:14:52.383Z,2.17
2017-07-29T14:17:18.712Z,2.53
2017-07-29T14:19:45.014Z,2.30
2017-07-29T14:22:11.354Z,2.50
2017-07-29T14:24:38.444Z,2.53
2017-07-29T14:27:04.776Z,2.50
2017-07-29T14:29:31.143Z,2.53
2017-07-29T14:31:57.444Z,2.10
2017-07-29T14:34:23.748Z,2.80
2017-07-29T14:36:50.075Z,2.47
2017-07-29T14:39:16.408Z,2.40
2017-07-29T14:41:42.761Z,2.55
2017-07-29T14:44:09.107Z,2.30
2017-07-29T14:46:36.226Z,2.75
2017-07-29T14:49:02.544Z,2.87
2017-07-29T14:51:28.848Z,2.15
2017-07-29T14:53:55.942Z,2.25
2017-07-29T14:56:22.252Z,2.62
2017-07-29T14:58:48.633Z,2.42
2017-07-29T15:01:14.993Z,2.45
2017-07-29T15:03:42.066Z,2.25
2017-07-29T15:06:08.375Z,2.40
2017-07-29T15:08:34.743Z,2.55
2017-07-29T15:11:01.035Z,2.10
2017-07-29T15:13:27.372Z,2.70
2017-07-29T15:15:53.677Z,2.70
2017-07-29T15:18:20.772Z,3.20
2017-07-29T15:20:47.164Z,2.87
2017-07-29T15:23:13.467Z,2.55
2017-07-29T15:25:39.805Z,2.37
2017-07-29T15:28:06.159Z,2.50
2017-07-29T15:30:33.212Z,2.65
2017-07-29T15:32:59.523Z,2.47
2017-07-29T15:35:25.906Z,3.15
2017-07-29T15:37:52.236Z,2.65
2017-07-29T15:40:18.578Z,2.80
2017-07-29T15:42:44.896Z,2.60
2017-07-29T15:45:11.263Z,2.80
2017-07-29T15:47:37.605Z,2.60
2017-07-29T15:50:03.990Z,4.15
2017-07-29T15:52:30.292Z,3.03
2017-07-29T15:54:56.620Z,2.90
2017-07-29T15:57:23.721Z,2.90
2017-07-29T15:59:50.034Z,2.70
2017-07-29T16:02:16.376Z,2.55
2017-07-29T16:04:42.713Z,2.90
2017-07-29T16:07:09.054Z,3.17
2017-07-29T16:09:35.410Z,2.75
2017-07-29T16:12:02.463Z,2.92
2017-07-29T16:14:29.494Z,3.30
2017-07-29T16:16:56.581Z,2.80
2017-07-29T16:19:22.964Z,2.97
2017-07-29T16:21:49.282Z,2.80
2017-07-29T16:24:15.603Z,2.53
2017-07-29T16:26:41.935Z,2.50
2017-07-29T16:29:08.261Z,2.55
2017-07-29T16:31:34.592Z,3.30
2017-07-29T16:34:00.907Z,2.80
2017-07-29T16:36:27.227Z,3.05
2017-07-29T16:38:53.595Z,2.60
2017-07-29T16:41:19.900Z,2.30
2017-07-29T16:43:46.244Z,2.55
2017-07-29T16:46:12.556Z,2.80
2017-07-29T16:48:38.860Z,2.55
2017-07-29T16:51:05.200Z,2.70
2017-07-29T16:53:31.515Z,2.80
2017-07-29T16:55:57.872Z,2.83
2017-07-29T16:58:24.196Z,2.75
2017-07-29T17:00:50.560Z,2.72
2017-07-29T17:03:16.887Z,2.65
2017-07-29T17:05:43.213Z,2.50
2017-07-29T17:08:09.812Z,2.60
2017-07-29T17:10:36.127Z,2.80
2017-07-29T17:13:03.212Z,2.62
2017-07-29T17:15:29.522Z,2.80
2017-07-29T17:17:55.848Z,2.72
2017-07-29T17:20:22.261Z,3.00
2017-07-29T17:22:48.613Z,2.80
2017-07-29T17:25:14.935Z,3.00
2017-07-29T17:27:41.279Z,2.80
2017-07-29T17:30:07.625Z,2.90
2017-07-29T17:32:33.979Z,2.72
2017-07-29T17:35:00.329Z,2.90
2017-07-29T17:37:26.660Z,2.60
2017-07-29T17:39:53.003Z,3.17
2017-07-29T17:42:20.240Z,3.22
2017-07-29T17:44:46.560Z,2.80
2017-07-29T17:47:12.875Z,2.75
2017-07-29T17:49:39.208Z,3.50
2017-07-29T17:52:05.568Z,2.90
2017-07-29T17:54:32.678Z,3.10
2017-07-29T17:56:58.991Z,3.17
2017-07-29T17:59:25.424Z,2.83
2017-07-29T18:01:51.738Z,3.47
2017-07-29T18:04:18.065Z,3.22
2017-07-29T18:06:44.433Z,2.90
2017-07-29T18:09:11.312Z,3.30
2017-07-29T18:11:38.404Z,3.10
2017-07-29T18:14:04.811Z,3.50
2017-07-29T18:16:31.156Z,3.20
2017-07-29T18:18:57.512Z,3.25
2017-07-29T18:21:23.883Z,3.28
2017-07-29T18:23:50.219Z,2.70
2017-07-29T18:26:16.537Z,3.20
2017-07-29T18:28:42.925Z,2.65
2017-07-29T18:31:09.265Z,3.17
2017-07-29T18:33:35.634Z,3.50
2017-07-29T18:36:02.711Z,3.30
2017-07-29T18:38:29.048Z,3.00
2017-07-29T18:40:55.399Z,3.50
2017-07-29T18:43:21.772Z,3.60
2017-07-29T18:45:48.084Z,3.60
2017-07-29T18:48:14.461Z,3.47
2017-07-29T18:50:40.830Z,3.72
2017-07-29T18:53:07.140Z,3.37
2017-07-29T18:55:33.471Z,3.40
2017-07-29T18:57:59.935Z,2.80
2017-07-29T19:00:26.280Z,3.67
2017-07-29T19:02:52.675Z,3.67
2017-07-29T19:05:19.004Z,3.70
2017-07-29T19:07:45.328Z,3.03
2017-07-29T19:10:11.693Z,3.33
2017-07-29T19:12:38.811Z,4.30
2017-07-29T19:15:05.164Z,3.58
2017-07-29T19:17:31.572Z,3.75
2017-07-29T19:19:57.909Z,3.40
2017-07-29T19:22:24.254Z,3.60
2017-07-29T19:24:50.626Z,3.90
2017-07-29T19:27:17.000Z,4.37
2017-07-29T19:29:43.365Z,5.03
2017-07-29T19:32:09.742Z,3.80
2017-07-29T19:34:36.092Z,3.80
2017-07-29T19:37:02.469Z,6.07
2017-07-29T19:39:29.576Z,6.20
2017-07-29T19:41:55.928Z,5.93
2017-07-29T19:44:22.292Z,4.40
2017-07-29T19:46:49.365Z,3.80
2017-07-29T19:49:15.712Z,3.35
2017-07-29T19:51:42.088Z,3.30
2017-07-29T19:54:09.249Z,3.47
2017-07-29T19:56:35.568Z,3.67
2017-07-29T19:59:02.751Z,3.30
2017-07-29T20:01:29.109Z,3.53
2017-07-29T20:03:55.448Z,3.85
2017-07-29T20:06:21.844Z,3.45
2017-07-29T20:08:48.213Z,3.37
2017-07-29T20:11:14.552Z,3.40
2017-07-29T20:13:40.945Z,3.33
2017-07-29T20:16:07.308Z,3.97
2017-07-29T20:18:33.663Z,3.35
2017-07-29T20:21:00.072Z,3.15
2017-07-29T20:23:26.457Z,3.50
2017-07-29T20:25:52.828Z,3.47
2017-07-29T20:28:19.168Z,3.10
2017-07-29T20:30:45.516Z,3.42
2017-07-29T20:33:12.638Z,3.45
2017-07-29T20:35:38.987Z,4.12
2017-07-29T20:38:05.357Z,3.78
2017-07-29T20:40:31.740Z,3.53
2017-07-29T20:42:58.075Z,3.78
2017-07-29T20:45:24.505Z,3.40
2017-07-29T20:47:50.854Z,4.20
2017-07-29T20:50:17.913Z,3.80
2017-07-29T20:52:44.276Z,3.60
2017-07-29T20:55:10.610Z,3.83
2017-07-29T20:57:37.004Z,3.30
2017-07-29T21:00:03.459Z,3.17
2017-07-29T21:02:29.975Z,3.50
2017-07-29T21:04:57.183Z,3.75
2017-07-29T21:07:23.606Z,3.87
2017-07-29T21:09:49.979Z,3.58
2017-07-29T21:12:16.414Z,3.50
2017-07-29T21:14:43.578Z,3.53
2017-07-29T21:17:09.936Z,3.50
2017-07-29T21:19:36.316Z,3.78
2017-07-29T21:22:02.735Z,3.62
2017-07-29T21:24:29.100Z,4.15
2017-07-29T21:26:55.455Z,3.37
2017-07-29T21:29:21.908Z,3.40
2017-07-29T21:31:48.259Z,3.80
2017-07-29T21:34:14.607Z,3.80
2017-07-29T21:36:40.970Z,3.28
2017-07-29T21:39:07.309Z,3.35
2017-07-29T21:41:33.679Z,3.62
2017-07-29T21:44:00.040Z,3.50
2017-07-29T21:46:27.120Z,3.58
2017-07-29T21:48:53.504Z,3.37
2017-07-29T21:51:19.824Z,3.35
2017-07-29T21:53:46.238Z,3.60
2017-07-29T21:56:13.337Z,3.60
2017-07-29T21:58:39.770Z,3.47
2017-07-29T22:01:06.160Z,3.60
2017-07-29T22:03:33.268Z,3.65
2017-07-29T22:05:59.620Z,3.60
2017-07-29T22:08:25.972Z,3.80
2017-07-29T22:10:52.309Z,3.30
2017-07-29T22:13:18.732Z,3.72
2017-07-29T22:15:45.098Z,4.18
2017-07-29T22:18:12.171Z,3.65
2017-07-29T22:20:38.623Z,3.90
2017-07-29T22:23:05.052Z,3.83
2017-07-29T22:25:31.424Z,3.70
2017-07-29T22:27:58.536Z,3.87
2017-07-29T22:30:24.898Z,3.62
2017-07-29T22:32:51.285Z,3.92
2017-07-29T22:35:17.615Z,3.92
2017-07-29T22:37:43.995Z,3.70
2017-07-29T22:40:10.393Z,3.97
2017-07-29T22:42:36.737Z,3.60
2017-07-29T22:45:03.129Z,3.58
2017-07-29T22:47:29.552Z,3.40
2017-07-29T22:49:55.871Z,4.15
2017-07-29T22:52:23.008Z,4.10
2017-07-29T22:54:50.087Z,4.03
2017-07-29T22:57:16.508Z,3.85
2017-07-29T22:59:42.853Z,3.85
2017-07-29T23:02:09.236Z,4.00
2017-07-29T23:04:35.577Z,4.00
2017-07-29T23:07:02.704Z,3.97
2017-07-29T23:09:29.069Z,4.28
2017-07-29T23:11:55.400Z,3.75
2017-07-29T23:14:22.511Z,4.22
2017-07-29T23:16:48.856Z,4.30
2017-07-29T23:19:15.198Z,4.72
2017-07-29T23:21:41.600Z,4.40
2017-07-29T23:24:07.956Z,3.90
2017-07-29T23:26:35.037Z,4.55
2017-07-29T23:29:01.372Z,4.10
2017-07-29T23:31:27.760Z,4.05
2017-07-29T23:33:54.098Z,4.10
2017-07-29T23:36:20.445Z,4.10
2017-07-29T23:38:47.567Z,3.83
2017-07-29T23:41:13.887Z,4.12
2017-07-29T23:43:40.261Z,4.15
2017-07-29T23:46:06.595Z,4.68
2017-07-29T23:48:32.981Z,4.43
2017-07-29T23:50:59.331Z,4.55
2017-07-29T23:53:25.669Z,4.50
2017-07-29T23:55:52.029Z,4.30
2017-07-29T23:58:18.355Z,3.95
